sensor_id;sensor_type;location;lat;lon;timestamp;temperature;humidity
8711;DHT22;4392;47.400;8.062;2022-11-15T00:00:52;10.20;99.90
8711;DHT22;4392;47.400;8.062;2022-11-15T00:03:20;10.20;99.90
8711;DHT22;4392;47.400;8.062;2022-11-15T00:05:47;10.20;99.90
8711;DHT22;4392;47.400;8.062;2022-11-15T00:08:13;10.20;99.90
8711;DHT22;4392;47.400;8.062;2022-11-15T00:10:39;10.10;99.90
8711;DHT22;4392;47.400;8.062;2022-11-15T00:13:09;10.10;99.90
8711;DHT22;4392;47.400;8.062;2022-11-15T00:15:39;10.10;99.90
8711;DHT22;4392;47.400;8.062;2022-11-15T00:18:06;10.10;99.90
8711;DHT22;4392;47.400;8.062;2022-11-15T00:20:36;10.10;99.90
8711;DHT22;4392;47.400;8.062;2022-11-15T00:23:03;10.10;99.90
8711;DHT22;4392;47.400;8.062;2022-11-15T00:25:30;10.10;99.90
8711;DHT22;4392;47.400;8.062;2022-11-15T00:27:56;10.10;99.90
8711;DHT22;4392;47.400;8.062;2022-11-15T00:30:23;10.10;99.90
8711;DHT22;4392;47.400;8.062;2022-11-15T00:32:49;10.10;99.90
8711;DHT22;4392;47.400;8.062;2022-11-15T00:35:15;10.10;99.90
8711;DHT22;4392;47.400;8.062;2022-11-15T00:38:07;10.10;99.90
8711;DHT22;4392;47.400;8.062;2022-11-15T00:40:33;10.10;99.90
8711;DHT22;4392;47.400;8.062;2022-11-15T00:43:08;10.20;99.90
8711;DHT22;4392;47.400;8.062;2022-11-15T00:45:40;10.30;99.90
8711;DHT22;4392;47.400;8.062;2022-11-15T00:51:44;10.10;99.90
8711;DHT22;4392;47.400;8.062;2022-11-15T00:57:43;10.10;99.90
8711;DHT22;4392;47.400;8.062;2022-11-15T01:00:12;10.10;99.90
8711;DHT22;4392;47.400;8.062;2022-11-15T01:02:38;10.10;99.90
8711;DHT22;4392;47.400;8.062;2022-11-15T01:05:07;10.10;99.90
8711;DHT22;4392;47.400;8.062;2022-11-15T01:07:36;10.20;99.90
8711;DHT22;4392;47.400;8.062;2022-11-15T01:10:05;10.20;99.90
8711;DHT22;4392;47.400;8.062;2022-11-15T01:12:40;10.20;99.90
8711;DHT22;4392;47.400;8.062;2022-11-15T01:15:08;10.20;99.90
8711;DHT22;4392;47.400;8.062;2022-11-15T01:17:37;10.20;99.90
8711;DHT22;4392;47.400;8.062;2022-11-15T01:20:09;10.20;99.90
8711;DHT22;4392;47.400;8.062;2022-11-15T01:22:38;10.20;99.90
8711;DHT22;4392;47.400;8.062;2022-11-15T01:25:09;10.30;99.90
8711;DHT22;4392;47.400;8.062;2022-11-15T01:27:41;10.20;99.90
8711;DHT22;4392;47.400;8.062;2022-11-15T01:30:10;10.20;99.90
8711;DHT22;4392;47.400;8.062;2022-11-15T01:35:48;10.10;99.90
8711;DHT22;4392;47.400;8.062;2022-11-15T01:42:02;10.00;99.90
8711;DHT22;4392;47.400;8.062;2022-11-15T01:48:10;10.10;99.90
8711;DHT22;4392;47.400;8.062;2022-11-15T01:50:36;10.10;99.90
8711;DHT22;4392;47.400;8.062;2022-11-15T01:53:02;10.10;99.90
8711;DHT22;4392;47.400;8.062;2022-11-15T01:55:37;10.10;99.90
8711;DHT22;4392;47.400;8.062;2022-11-15T01:58:18;10.20;99.90
8711;DHT22;4392;47.400;8.062;2022-11-15T02:00:44;10.20;99.90
8711;DHT22;4392;47.400;8.062;2022-11-15T02:03:16;10.20;99.90
8711;DHT22;4392;47.400;8.062;2022-11-15T02:05:54;10.10;99.90
8711;DHT22;4392;47.400;8.062;2022-11-15T02:08:20;10.10;99.90
8711;DHT22;4392;47.400;8.062;2022-11-15T02:10:52;10.10;99.90
8711;DHT22;4392;47.400;8.062;2022-11-15T02:13:21;10.20;99.90
8711;DHT22;4392;47.400;8.062;2022-11-15T02:28:59;10.10;99.90
8711;DHT22;4392;47.400;8.062;2022-11-15T02:34:50;10.10;99.90
8711;DHT22;4392;47.400;8.062;2022-11-15T02:43:36;10.00;99.90
8711;DHT22;4392;47.400;8.062;2022-11-15T02:46:38;10.00;99.90
8711;DHT22;4392;47.400;8.062;2022-11-15T02:49:29;10.00;99.90
8711;DHT22;4392;47.400;8.062;2022-11-15T02:52:09;10.00;99.90
8711;DHT22;4392;47.400;8.062;2022-11-15T02:54:58;10.00;99.90
8711;DHT22;4392;47.400;8.062;2022-11-15T03:00:34;10.10;99.90
8711;DHT22;4392;47.400;8.062;2022-11-15T03:19:32;10.20;99.90
8711;DHT22;4392;47.400;8.062;2022-11-15T03:22:29;10.20;99.90
8711;DHT22;4392;47.400;8.062;2022-11-15T03:28:15;10.20;99.90
8711;DHT22;4392;47.400;8.062;2022-11-15T03:30:46;10.20;99.90
8711;DHT22;4392;47.400;8.062;2022-11-15T03:33:13;10.20;99.90
8711;DHT22;4392;47.400;8.062;2022-11-15T03:35:57;10.20;99.90
8711;DHT22;4392;47.400;8.062;2022-11-15T03:38:45;10.20;99.90
8711;DHT22;4392;47.400;8.062;2022-11-15T03:41:24;10.20;99.90
8711;DHT22;4392;47.400;8.062;2022-11-15T03:44:16;10.20;99.90
8711;DHT22;4392;47.400;8.062;2022-11-15T03:49:32;10.20;99.90
8711;DHT22;4392;47.400;8.062;2022-11-15T03:52:00;10.30;99.90
8711;DHT22;4392;47.400;8.062;2022-11-15T03:54:28;10.30;99.90
8711;DHT22;4392;47.400;8.062;2022-11-15T03:57:02;10.30;99.90
8711;DHT22;4392;47.400;8.062;2022-11-15T03:59:53;10.30;99.90
8711;DHT22;4392;47.400;8.062;2022-11-15T04:05:49;10.30;99.90
8711;DHT22;4392;47.400;8.062;2022-11-15T04:08:39;10.20;99.90
8711;DHT22;4392;47.400;8.062;2022-11-15T04:11:36;10.30;99.90
8711;DHT22;4392;47.400;8.062;2022-11-15T04:20:15;10.30;99.90
8711;DHT22;4392;47.400;8.062;2022-11-15T04:23:01;10.30;99.90
8711;DHT22;4392;47.400;8.062;2022-11-15T04:25:52;10.30;99.90
8711;DHT22;4392;47.400;8.062;2022-11-15T04:28:30;10.30;99.90
8711;DHT22;4392;47.400;8.062;2022-11-15T04:31:11;10.30;99.90
8711;DHT22;4392;47.400;8.062;2022-11-15T04:33:37;10.30;99.90
8711;DHT22;4392;47.400;8.062;2022-11-15T04:36:09;10.30;99.90
8711;DHT22;4392;47.400;8.062;2022-11-15T04:39:05;10.30;99.90
8711;DHT22;4392;47.400;8.062;2022-11-15T04:41:31;10.30;99.90
8711;DHT22;4392;47.400;8.062;2022-11-15T04:44:12;10.30;99.90
8711;DHT22;4392;47.400;8.062;2022-11-15T04:46:46;10.30;99.90
8711;DHT22;4392;47.400;8.062;2022-11-15T04:49:21;10.30;99.90
8711;DHT22;4392;47.400;8.062;2022-11-15T04:52:04;10.20;99.90
8711;DHT22;4392;47.400;8.062;2022-11-15T04:54:52;10.20;99.90
8711;DHT22;4392;47.400;8.062;2022-11-15T05:00:58;10.30;99.90
8711;DHT22;4392;47.400;8.062;2022-11-15T05:07:29;10.30;99.90
8711;DHT22;4392;47.400;8.062;2022-11-15T05:10:13;10.30;99.90
8711;DHT22;4392;47.400;8.062;2022-11-15T05:12:39;10.40;99.90
8711;DHT22;4392;47.400;8.062;2022-11-15T05:15:05;10.40;99.90
8711;DHT22;4392;47.400;8.062;2022-11-15T05:17:42;10.40;99.90
8711;DHT22;4392;47.400;8.062;2022-11-15T05:20:14;10.30;99.90
8711;DHT22;4392;47.400;8.062;2022-11-15T05:22:45;10.40;99.90
8711;DHT22;4392;47.400;8.062;2022-11-15T05:25:29;10.20;99.90
8711;DHT22;4392;47.400;8.062;2022-11-15T05:27:57;10.30;99.90
8711;DHT22;4392;47.400;8.062;2022-11-15T05:30:32;10.30;99.90
8711;DHT22;4392;47.400;8.062;2022-11-15T05:33:00;10.40;99.90
8711;DHT22;4392;47.400;8.062;2022-11-15T05:35:38;10.40;99.90
8711;DHT22;4392;47.400;8.062;2022-11-15T05:38:13;10.30;99.90
8711;DHT22;4392;47.400;8.062;2022-11-15T05:43:51;10.50;99.90
8711;DHT22;4392;47.400;8.062;2022-11-15T05:46:55;10.50;99.90
8711;DHT22;4392;47.400;8.062;2022-11-15T05:53:29;10.40;99.90
8711;DHT22;4392;47.400;8.062;2022-11-15T05:56:22;10.40;99.90
8711;DHT22;4392;47.400;8.062;2022-11-15T05:58:53;10.40;99.90
8711;DHT22;4392;47.400;8.062;2022-11-15T06:01:20;10.40;99.90
8711;DHT22;4392;47.400;8.062;2022-11-15T06:03:46;10.40;99.90
8711;DHT22;4392;47.400;8.062;2022-11-15T06:06:17;10.30;99.90
8711;DHT22;4392;47.400;8.062;2022-11-15T06:08:46;10.40;99.90
8711;DHT22;4392;47.400;8.062;2022-11-15T06:11:21;10.30;99.90
8711;DHT22;4392;47.400;8.062;2022-11-15T06:13:47;10.30;99.90
8711;DHT22;4392;47.400;8.062;2022-11-15T06:16:13;10.30;99.90
8711;DHT22;4392;47.400;8.062;2022-11-15T06:18:41;10.20;99.90
8711;DHT22;4392;47.400;8.062;2022-11-15T06:21:12;10.20;99.90
8711;DHT22;4392;47.400;8.062;2022-11-15T06:23:38;10.20;99.90
8711;DHT22;4392;47.400;8.062;2022-11-15T06:26:41;10.20;99.90
8711;DHT22;4392;47.400;8.062;2022-11-15T06:29:09;10.30;99.90
8711;DHT22;4392;47.400;8.062;2022-11-15T06:32:06;10.30;99.90
8711;DHT22;4392;47.400;8.062;2022-11-15T06:34:41;10.20;99.90
8711;DHT22;4392;47.400;8.062;2022-11-15T06:40:34;10.30;99.90
8711;DHT22;4392;47.400;8.062;2022-11-15T06:49:49;10.20;99.90
8711;DHT22;4392;47.400;8.062;2022-11-15T06:52:14;10.20;99.90
8711;DHT22;4392;47.400;8.062;2022-11-15T06:54:40;10.30;99.90
8711;DHT22;4392;47.400;8.062;2022-11-15T06:57:06;10.20;99.90
8711;DHT22;4392;47.400;8.062;2022-11-15T06:59:44;10.20;99.90
8711;DHT22;4392;47.400;8.062;2022-11-15T07:02:16;10.30;99.90
8711;DHT22;4392;47.400;8.062;2022-11-15T07:04:54;10.30;99.90
8711;DHT22;4392;47.400;8.062;2022-11-15T07:07:20;10.20;99.90
8711;DHT22;4392;47.400;8.062;2022-11-15T07:09:58;10.30;99.90
8711;DHT22;4392;47.400;8.062;2022-11-15T07:12:55;10.30;99.90
8711;DHT22;4392;47.400;8.062;2022-11-15T07:15:34;10.30;99.90
8711;DHT22;4392;47.400;8.062;2022-11-15T07:18:15;10.30;99.90
8711;DHT22;4392;47.400;8.062;2022-11-15T07:21:03;10.30;99.90
8711;DHT22;4392;47.400;8.062;2022-11-15T07:23:56;10.30;99.90
8711;DHT22;4392;47.400;8.062;2022-11-15T07:26:36;10.30;99.90
8711;DHT22;4392;47.400;8.062;2022-11-15T07:29:35;10.30;99.90
8711;DHT22;4392;47.400;8.062;2022-11-15T07:32:28;10.30;99.90
8711;DHT22;4392;47.400;8.062;2022-11-15T07:38:12;10.30;99.90
8711;DHT22;4392;47.400;8.062;2022-11-15T07:40:40;10.20;99.90
8711;DHT22;4392;47.400;8.062;2022-11-15T07:43:07;10.30;99.90
8711;DHT22;4392;47.400;8.062;2022-11-15T07:45:53;10.30;99.90
8711;DHT22;4392;47.400;8.062;2022-11-15T07:48:27;10.30;99.90
8711;DHT22;4392;47.400;8.062;2022-11-15T07:50:52;10.40;99.90
8711;DHT22;4392;47.400;8.062;2022-11-15T07:53:18;10.30;99.90
8711;DHT22;4392;47.400;8.062;2022-11-15T07:55:56;10.30;99.90
8711;DHT22;4392;47.400;8.062;2022-11-15T07:58:30;10.50;99.90
8711;DHT22;4392;47.400;8.062;2022-11-15T08:01:17;10.60;99.90
8711;DHT22;4392;47.400;8.062;2022-11-15T08:03:55;10.60;99.90
8711;DHT22;4392;47.400;8.062;2022-11-15T08:06:33;10.70;99.90
8711;DHT22;4392;47.400;8.062;2022-11-15T08:09:01;10.70;99.90
8711;DHT22;4392;47.400;8.062;2022-11-15T08:14:50;10.60;99.90
8711;DHT22;4392;47.400;8.062;2022-11-15T08:24:23;10.40;99.90
8711;DHT22;4392;47.400;8.062;2022-11-15T08:27:37;10.40;99.90
8711;DHT22;4392;47.400;8.062;2022-11-15T08:30:03;10.40;99.90
8711;DHT22;4392;47.400;8.062;2022-11-15T08:32:30;10.40;99.90
8711;DHT22;4392;47.400;8.062;2022-11-15T08:35:12;10.40;99.90
8711;DHT22;4392;47.400;8.062;2022-11-15T08:37:50;10.40;99.90
8711;DHT22;4392;47.400;8.062;2022-11-15T08:40:31;10.50;99.90
8711;DHT22;4392;47.400;8.062;2022-11-15T08:43:09;10.50;99.90
8711;DHT22;4392;47.400;8.062;2022-11-15T08:45:35;10.50;99.90
8711;DHT22;4392;47.400;8.062;2022-11-15T08:48:02;10.50;99.90
8711;DHT22;4392;47.400;8.062;2022-11-15T08:50:28;10.40;99.90
8711;DHT22;4392;47.400;8.062;2022-11-15T08:53:15;10.40;99.90
8711;DHT22;4392;47.400;8.062;2022-11-15T08:55:46;10.40;99.90
8711;DHT22;4392;47.400;8.062;2022-11-15T09:01:43;10.40;99.90
8711;DHT22;4392;47.400;8.062;2022-11-15T09:07:17;10.50;99.90
8711;DHT22;4392;47.400;8.062;2022-11-15T09:13:14;10.50;99.90
8711;DHT22;4392;47.400;8.062;2022-11-15T09:18:55;10.50;99.90
8711;DHT22;4392;47.400;8.062;2022-11-15T09:21:21;10.50;99.90
8711;DHT22;4392;47.400;8.062;2022-11-15T09:23:50;10.60;99.90
8711;DHT22;4392;47.400;8.062;2022-11-15T09:26:23;10.60;99.90
8711;DHT22;4392;47.400;8.062;2022-11-15T09:28:57;10.60;99.90
8711;DHT22;4392;47.400;8.062;2022-11-15T09:31:36;10.50;99.90
8711;DHT22;4392;47.400;8.062;2022-11-15T09:34:11;10.40;99.90
8711;DHT22;4392;47.400;8.062;2022-11-15T09:36:55;10.50;99.90
8711;DHT22;4392;47.400;8.062;2022-11-15T09:39:36;10.60;99.90
8711;DHT22;4392;47.400;8.062;2022-11-15T09:49:03;10.60;99.90
8711;DHT22;4392;47.400;8.062;2022-11-15T09:51:57;10.50;99.90
8711;DHT22;4392;47.400;8.062;2022-11-15T10:04:15;10.70;99.90
8711;DHT22;4392;47.400;8.062;2022-11-15T10:10:10;10.80;99.90
8711;DHT22;4392;47.400;8.062;2022-11-15T10:12:45;10.80;99.90
8711;DHT22;4392;47.400;8.062;2022-11-15T10:15:15;10.70;99.90
8711;DHT22;4392;47.400;8.062;2022-11-15T10:20:27;10.70;99.90
8711;DHT22;4392;47.400;8.062;2022-11-15T10:25:55;10.80;99.90
8711;DHT22;4392;47.400;8.062;2022-11-15T10:28:27;10.80;99.90
8711;DHT22;4392;47.400;8.062;2022-11-15T10:33:41;11.00;99.90
8711;DHT22;4392;47.400;8.062;2022-11-15T10:42:29;10.80;99.90
8711;DHT22;4392;47.400;8.062;2022-11-15T10:45:37;10.80;99.90
8711;DHT22;4392;47.400;8.062;2022-11-15T10:48:43;10.80;99.90
8711;DHT22;4392;47.400;8.062;2022-11-15T10:55:12;10.80;99.90
8711;DHT22;4392;47.400;8.062;2022-11-15T10:58:42;11.20;99.90
8711;DHT22;4392;47.400;8.062;2022-11-15T11:01:19;11.40;99.90
8711;DHT22;4392;47.400;8.062;2022-11-15T11:04:04;11.50;99.90
8711;DHT22;4392;47.400;8.062;2022-11-15T11:06:53;11.70;99.90
8711;DHT22;4392;47.400;8.062;2022-11-15T11:09:42;12.50;99.90
8711;DHT22;4392;47.400;8.062;2022-11-15T11:12:16;12.90;99.90
8711;DHT22;4392;47.400;8.062;2022-11-15T11:14:54;13.10;99.90
8711;DHT22;4392;47.400;8.062;2022-11-15T11:49:30;13.20;99.90
8711;DHT22;4392;47.400;8.062;2022-11-15T11:52:38;13.40;99.90
8711;DHT22;4392;47.400;8.062;2022-11-15T11:58:49;13.50;99.90
8711;DHT22;4392;47.400;8.062;2022-11-15T12:01:42;13.40;99.90
8711;DHT22;4392;47.400;8.062;2022-11-15T12:04:30;13.20;99.90
8711;DHT22;4392;47.400;8.062;2022-11-15T12:07:11;13.30;99.90
8711;DHT22;4392;47.400;8.062;2022-11-15T12:09:47;13.20;99.90
8711;DHT22;4392;47.400;8.062;2022-11-15T12:12:50;13.20;99.90
8711;DHT22;4392;47.400;8.062;2022-11-15T12:15:24;13.40;99.90
8711;DHT22;4392;47.400;8.062;2022-11-15T12:17:50;13.60;99.90
8711;DHT22;4392;47.400;8.062;2022-11-15T12:20:28;13.40;99.90
8711;DHT22;4392;47.400;8.062;2022-11-15T12:25:57;12.90;99.90
8711;DHT22;4392;47.400;8.062;2022-11-15T12:28:43;13.10;99.90
8711;DHT22;4392;47.400;8.062;2022-11-15T12:31:18;13.90;99.90
8711;DHT22;4392;47.400;8.062;2022-11-15T12:33:47;14.10;99.90
8711;DHT22;4392;47.400;8.062;2022-11-15T12:39:05;14.10;99.90
8711;DHT22;4392;47.400;8.062;2022-11-15T12:41:39;14.10;99.90
8711;DHT22;4392;47.400;8.062;2022-11-15T12:52:07;14.20;99.90
8711;DHT22;4392;47.400;8.062;2022-11-15T12:59:50;14.30;99.90
8711;DHT22;4392;47.400;8.062;2022-11-15T13:08:00;14.10;99.90
8711;DHT22;4392;47.400;8.062;2022-11-15T13:13:40;14.10;99.90
8711;DHT22;4392;47.400;8.062;2022-11-15T13:15:56;14.20;99.90
8711;DHT22;4392;47.400;8.062;2022-11-15T13:21:47;14.30;99.90
8711;DHT22;4392;47.400;8.062;2022-11-15T13:24:45;14.20;99.90
8711;DHT22;4392;47.400;8.062;2022-11-15T13:30:33;14.20;99.90
8711;DHT22;4392;47.400;8.062;2022-11-15T13:33:06;14.20;99.90
8711;DHT22;4392;47.400;8.062;2022-11-15T13:36:05;14.50;99.90
8711;DHT22;4392;47.400;8.062;2022-11-15T13:38:43;14.00;99.90
8711;DHT22;4392;47.400;8.062;2022-11-15T13:41:51;13.60;99.90
8711;DHT22;4392;47.400;8.062;2022-11-15T13:45:15;13.30;99.90
8711;DHT22;4392;47.400;8.062;2022-11-15T13:57:56;13.40;99.90
8711;DHT22;4392;47.400;8.062;2022-11-15T14:01:01;13.10;99.90
8711;DHT22;4392;47.400;8.062;2022-11-15T14:04:23;12.80;99.90
8711;DHT22;4392;47.400;8.062;2022-11-15T14:11:16;12.60;99.90
8711;DHT22;4392;47.400;8.062;2022-11-15T14:14:29;12.50;99.90
8711;DHT22;4392;47.400;8.062;2022-11-15T14:20:38;12.40;99.90
8711;DHT22;4392;47.400;8.062;2022-11-15T14:23:27;12.40;99.90
8711;DHT22;4392;47.400;8.062;2022-11-15T14:29:46;12.30;99.90
8711;DHT22;4392;47.400;8.062;2022-11-15T14:35:02;12.20;99.90
8711;DHT22;4392;47.400;8.062;2022-11-15T14:37:33;12.20;99.90
8711;DHT22;4392;47.400;8.062;2022-11-15T14:40:05;12.20;99.90
8711;DHT22;4392;47.400;8.062;2022-11-15T14:42:31;12.20;99.90
8711;DHT22;4392;47.400;8.062;2022-11-15T14:44:57;12.20;99.90
8711;DHT22;4392;47.400;8.062;2022-11-15T14:47:23;12.20;99.90
8711;DHT22;4392;47.400;8.062;2022-11-15T14:49:49;12.20;99.90
8711;DHT22;4392;47.400;8.062;2022-11-15T14:52:29;12.10;99.90
8711;DHT22;4392;47.400;8.062;2022-11-15T14:54:55;12.10;99.90
8711;DHT22;4392;47.400;8.062;2022-11-15T14:57:23;12.10;99.90
8711;DHT22;4392;47.400;8.062;2022-11-15T14:59:49;12.00;99.90
8711;DHT22;4392;47.400;8.062;2022-11-15T15:02:24;12.00;99.90
8711;DHT22;4392;47.400;8.062;2022-11-15T15:04:50;12.00;99.90
8711;DHT22;4392;47.400;8.062;2022-11-15T15:07:17;12.00;99.90
8711;DHT22;4392;47.400;8.062;2022-11-15T15:09:43;12.00;99.90
8711;DHT22;4392;47.400;8.062;2022-11-15T15:12:16;11.90;99.90
8711;DHT22;4392;47.400;8.062;2022-11-15T15:14:43;11.90;99.90
8711;DHT22;4392;47.400;8.062;2022-11-15T15:17:09;12.30;99.90
8711;DHT22;4392;47.400;8.062;2022-11-15T15:19:52;12.50;99.90
8711;DHT22;4392;47.400;8.062;2022-11-15T15:23:03;12.50;99.90
8711;DHT22;4392;47.400;8.062;2022-11-15T15:25:43;12.50;99.90
8711;DHT22;4392;47.400;8.062;2022-11-15T15:28:11;12.40;99.90
8711;DHT22;4392;47.400;8.062;2022-11-15T15:30:37;12.40;99.90
8711;DHT22;4392;47.400;8.062;2022-11-15T15:33:03;12.60;99.90
8711;DHT22;4392;47.400;8.062;2022-11-15T15:35:31;13.20;99.90
8711;DHT22;4392;47.400;8.062;2022-11-15T15:37:58;13.20;99.90
8711;DHT22;4392;47.400;8.062;2022-11-15T15:40:26;12.90;99.90
8711;DHT22;4392;47.400;8.062;2022-11-15T15:42:52;12.70;99.90
8711;DHT22;4392;47.400;8.062;2022-11-15T15:45:20;12.80;99.90
8711;DHT22;4392;47.400;8.062;2022-11-15T15:47:47;13.70;99.90
8711;DHT22;4392;47.400;8.062;2022-11-15T15:50:29;13.20;99.90
8711;DHT22;4392;47.400;8.062;2022-11-15T15:53:00;12.90;99.90
8711;DHT22;4392;47.400;8.062;2022-11-15T15:55:28;12.60;99.90
8711;DHT22;4392;47.400;8.062;2022-11-15T15:57:55;12.60;99.90
8711;DHT22;4392;47.400;8.062;2022-11-15T16:00:22;12.50;99.90
8711;DHT22;4392;47.400;8.062;2022-11-15T16:02:49;12.40;99.90
8711;DHT22;4392;47.400;8.062;2022-11-15T16:05:17;12.40;99.90
8711;DHT22;4392;47.400;8.062;2022-11-15T16:07:44;12.90;99.90
8711;DHT22;4392;47.400;8.062;2022-11-15T16:10:31;13.10;99.90
8711;DHT22;4392;47.400;8.062;2022-11-15T16:12:57;12.80;99.90
8711;DHT22;4392;47.400;8.062;2022-11-15T16:15:25;12.50;99.90
8711;DHT22;4392;47.400;8.062;2022-11-15T16:17:53;12.30;99.90
8711;DHT22;4392;47.400;8.062;2022-11-15T16:20:52;12.20;99.90
8711;DHT22;4392;47.400;8.062;2022-11-15T16:23:24;12.10;99.90
8711;DHT22;4392;47.400;8.062;2022-11-15T16:25:53;12.10;99.90
8711;DHT22;4392;47.400;8.062;2022-11-15T16:28:26;12.00;99.90
8711;DHT22;4392;47.400;8.062;2022-11-15T16:33:30;11.90;99.90
8711;DHT22;4392;47.400;8.062;2022-11-15T16:35:55;11.90;99.90
8711;DHT22;4392;47.400;8.062;2022-11-15T16:38:21;11.80;99.90
8711;DHT22;4392;47.400;8.062;2022-11-15T16:40:47;11.80;99.90
8711;DHT22;4392;47.400;8.062;2022-11-15T16:43:13;11.70;99.90
8711;DHT22;4392;47.400;8.062;2022-11-15T16:45:39;11.80;99.90
8711;DHT22;4392;47.400;8.062;2022-11-15T16:48:04;11.70;99.90
8711;DHT22;4392;47.400;8.062;2022-11-15T16:50:34;11.60;99.90
8711;DHT22;4392;47.400;8.062;2022-11-15T16:53:07;11.70;99.90
8711;DHT22;4392;47.400;8.062;2022-11-15T16:55:33;11.70;99.90
8711;DHT22;4392;47.400;8.062;2022-11-15T16:57:58;11.70;99.90
8711;DHT22;4392;47.400;8.062;2022-11-15T17:00:26;11.70;99.90
8711;DHT22;4392;47.400;8.062;2022-11-15T17:02:52;11.60;99.90
8711;DHT22;4392;47.400;8.062;2022-11-15T17:05:21;11.60;99.90
8711;DHT22;4392;47.400;8.062;2022-11-15T17:07:51;11.60;99.90
8711;DHT22;4392;47.400;8.062;2022-11-15T17:10:22;11.60;99.90
8711;DHT22;4392;47.400;8.062;2022-11-15T17:12:49;11.90;99.90
8711;DHT22;4392;47.400;8.062;2022-11-15T17:15:15;13.10;99.90
8711;DHT22;4392;47.400;8.062;2022-11-15T17:17:41;13.70;99.90
8711;DHT22;4392;47.400;8.062;2022-11-15T17:20:13;13.90;99.90
8711;DHT22;4392;47.400;8.062;2022-11-15T17:22:39;14.10;99.90
8711;DHT22;4392;47.400;8.062;2022-11-15T17:25:05;14.20;99.90
8711;DHT22;4392;47.400;8.062;2022-11-15T17:27:31;14.30;99.90
8711;DHT22;4392;47.400;8.062;2022-11-15T17:29:57;14.40;99.90
8711;DHT22;4392;47.400;8.062;2022-11-15T17:32:23;14.40;99.90
8711;DHT22;4392;47.400;8.062;2022-11-15T17:34:48;14.50;99.90
8711;DHT22;4392;47.400;8.062;2022-11-15T17:37:14;14.50;99.90
8711;DHT22;4392;47.400;8.062;2022-11-15T17:39:40;14.50;99.90
8711;DHT22;4392;47.400;8.062;2022-11-15T17:42:06;14.60;99.90
8711;DHT22;4392;47.400;8.062;2022-11-15T17:44:32;14.50;99.90
8711;DHT22;4392;47.400;8.062;2022-11-15T17:47:02;14.30;99.90
8711;DHT22;4392;47.400;8.062;2022-11-15T17:49:33;14.40;99.90
8711;DHT22;4392;47.400;8.062;2022-11-15T17:52:04;14.30;99.90
8711;DHT22;4392;47.400;8.062;2022-11-15T17:54:30;14.60;99.90
8711;DHT22;4392;47.400;8.062;2022-11-15T17:56:56;14.70;99.90
8711;DHT22;4392;47.400;8.062;2022-11-15T17:59:22;14.80;99.90
8711;DHT22;4392;47.400;8.062;2022-11-15T18:01:48;14.90;99.90
8711;DHT22;4392;47.400;8.062;2022-11-15T18:04:14;14.90;99.90
8711;DHT22;4392;47.400;8.062;2022-11-15T18:06:40;14.80;99.90
8711;DHT22;4392;47.400;8.062;2022-11-15T18:09:06;14.80;99.90
8711;DHT22;4392;47.400;8.062;2022-11-15T18:11:35;14.20;99.90
8711;DHT22;4392;47.400;8.062;2022-11-15T18:14:07;13.80;99.90
8711;DHT22;4392;47.400;8.062;2022-11-15T18:16:36;13.50;99.90
8711;DHT22;4392;47.400;8.062;2022-11-15T18:19:03;13.20;99.90
8711;DHT22;4392;47.400;8.062;2022-11-15T18:21:33;13.00;99.90
8711;DHT22;4392;47.400;8.062;2022-11-15T18:24:02;12.90;99.90
8711;DHT22;4392;47.400;8.062;2022-11-15T18:26:28;12.80;99.90
8711;DHT22;4392;47.400;8.062;2022-11-15T18:28:57;13.60;99.90
8711;DHT22;4392;47.400;8.062;2022-11-15T18:31:28;14.10;99.90
8711;DHT22;4392;47.400;8.062;2022-11-15T18:33:58;14.40;99.90
8711;DHT22;4392;47.400;8.062;2022-11-15T18:36:26;14.60;99.90
8711;DHT22;4392;47.400;8.062;2022-11-15T18:39:02;14.70;99.90
8711;DHT22;4392;47.400;8.062;2022-11-15T18:41:29;14.70;99.90
8711;DHT22;4392;47.400;8.062;2022-11-15T18:43:58;14.70;99.90
8711;DHT22;4392;47.400;8.062;2022-11-15T18:46:26;14.80;99.90
8711;DHT22;4392;47.400;8.062;2022-11-15T18:48:55;14.80;99.90
8711;DHT22;4392;47.400;8.062;2022-11-15T18:51:24;14.60;99.90
8711;DHT22;4392;47.400;8.062;2022-11-15T18:53:55;14.40;99.90
8711;DHT22;4392;47.400;8.062;2022-11-15T18:56:22;13.90;99.90
8711;DHT22;4392;47.400;8.062;2022-11-15T18:58:53;13.60;99.90
8711;DHT22;4392;47.400;8.062;2022-11-15T19:01:21;13.30;99.90
8711;DHT22;4392;47.400;8.062;2022-11-15T19:03:49;13.10;99.90
8711;DHT22;4392;47.400;8.062;2022-11-15T19:06:24;12.90;99.90
8711;DHT22;4392;47.400;8.062;2022-11-15T19:08:52;12.90;99.90
8711;DHT22;4392;47.400;8.062;2022-11-15T19:14:01;13.30;99.90
8711;DHT22;4392;47.400;8.062;2022-11-15T19:16:29;14.00;99.90
8711;DHT22;4392;47.400;8.062;2022-11-15T19:18:59;13.60;99.90
8711;DHT22;4392;47.400;8.062;2022-11-15T19:21:26;13.50;99.90
8711;DHT22;4392;47.400;8.062;2022-11-15T19:23:53;13.30;99.90
8711;DHT22;4392;47.400;8.062;2022-11-15T19:26:21;13.10;99.90
8711;DHT22;4392;47.400;8.062;2022-11-15T19:28:55;12.90;99.90
8711;DHT22;4392;47.400;8.062;2022-11-15T19:31:23;12.80;99.90
8711;DHT22;4392;47.400;8.062;2022-11-15T19:33:50;12.70;99.90
8711;DHT22;4392;47.400;8.062;2022-11-15T19:36:22;12.60;99.90
8711;DHT22;4392;47.400;8.062;2022-11-15T19:38:48;12.50;99.90
8711;DHT22;4392;47.400;8.062;2022-11-15T19:41:16;12.50;99.90
8711;DHT22;4392;47.400;8.062;2022-11-15T19:43:43;12.50;99.90
8711;DHT22;4392;47.400;8.062;2022-11-15T19:46:12;12.40;99.90
8711;DHT22;4392;47.400;8.062;2022-11-15T19:48:41;12.40;99.90
8711;DHT22;4392;47.400;8.062;2022-11-15T19:51:10;12.30;99.90
8711;DHT22;4392;47.400;8.062;2022-11-15T19:53:36;12.30;99.90
8711;DHT22;4392;47.400;8.062;2022-11-15T19:56:05;12.20;99.90
8711;DHT22;4392;47.400;8.062;2022-11-15T19:58:31;12.30;99.90
8711;DHT22;4392;47.400;8.062;2022-11-15T20:01:06;12.20;99.90
8711;DHT22;4392;47.400;8.062;2022-11-15T20:03:34;12.20;99.90
8711;DHT22;4392;47.400;8.062;2022-11-15T20:06:08;12.20;99.90
8711;DHT22;4392;47.400;8.062;2022-11-15T20:08:34;12.20;99.90
8711;DHT22;4392;47.400;8.062;2022-11-15T20:11:01;12.30;99.90
8711;DHT22;4392;47.400;8.062;2022-11-15T20:13:28;12.60;99.90
8711;DHT22;4392;47.400;8.062;2022-11-15T20:15:54;12.40;99.90
8711;DHT22;4392;47.400;8.062;2022-11-15T20:18:21;12.30;99.90
8711;DHT22;4392;47.400;8.062;2022-11-15T20:20:48;12.40;99.90
8711;DHT22;4392;47.400;8.062;2022-11-15T20:23:14;12.30;99.90
8711;DHT22;4392;47.400;8.062;2022-11-15T20:25:45;12.40;99.90
8711;DHT22;4392;47.400;8.062;2022-11-15T20:28:17;12.90;99.90
8711;DHT22;4392;47.400;8.062;2022-11-15T20:30:44;12.60;99.90
8711;DHT22;4392;47.400;8.062;2022-11-15T20:33:20;12.40;99.90
8711;DHT22;4392;47.400;8.062;2022-11-15T20:35:47;12.30;99.90
8711;DHT22;4392;47.400;8.062;2022-11-15T20:38:13;12.20;99.90
8711;DHT22;4392;47.400;8.062;2022-11-15T20:40:39;12.20;99.90
8711;DHT22;4392;47.400;8.062;2022-11-15T20:43:05;12.10;99.90
8711;DHT22;4392;47.400;8.062;2022-11-15T20:45:31;12.20;99.90
8711;DHT22;4392;47.400;8.062;2022-11-15T20:47:58;12.60;99.90
8711;DHT22;4392;47.400;8.062;2022-11-15T20:50:24;13.20;99.90
8711;DHT22;4392;47.400;8.062;2022-11-15T20:52:51;13.40;99.90
8711;DHT22;4392;47.400;8.062;2022-11-15T20:55:19;13.60;99.90
8711;DHT22;4392;47.400;8.062;2022-11-15T20:57:46;13.50;99.90
8711;DHT22;4392;47.400;8.062;2022-11-15T21:00:12;13.60;99.90
8711;DHT22;4392;47.400;8.062;2022-11-15T21:02:37;13.50;99.90
8711;DHT22;4392;47.400;8.062;2022-11-15T21:05:04;13.70;99.90
8711;DHT22;4392;47.400;8.062;2022-11-15T21:07:30;13.80;99.90